Orsola Bottiglieri — ICQN — position and weather

sailwx.info

Track history (hours):
 
Tides and Currents Weather Stations Pressure Air Temp Water Temp Dewpoint Dewpoint Depression Visibility Wind Speed Wind Dir Waves Ship Positions

Orsola Bottiglieri

Last reported at 2015-Jul-16 04:08 UTC. Time now 2015-Aug-01 09:51 UTC.
Position S 27°01' E 154°06'.
Warning: this ship's position is 16 days out of date.

Length 292 m; draft 15.5 m.

Type: Cargo ship. MMSI: 247304400.

Date/timePositionNaut miles runAvg speedWind from/ knotsBaromVisibWave heightAir tempDewpointWater temp
2015-Jul-16 04:08S 27°01' E 154°06'711.9
2015-Jul-16 03:33S 27°08' E 154°06'19 9.5
2015-Jul-16 01:33S 27°27' E 154°07'9 9.4
2015-Jul-16 00:33S 27°37' E 154°06'9 9.3
2015-Jul-15 23:33S 27°46' E 154°06'9 8.6
2015-Jul-15 22:30S 27°55' E 154°06'285 8.8
2015-Jul-14 14:06S 32°31' E 152°44'611.9
2015-Jul-14 13:33S 32°36' E 152°39'1212.2
2015-Jul-14 12:33S 32°45' E 152°30'1211.8
2015-Jul-14 11:33S 32°52' E 152°19'1211.8
2015-Jul-14 10:33S 32°57' E 152°06'1111.1
2015-Jul-14 09:33S 32°57' E 151°53'6 5.8
2015-Jul-14 08:33S 32°54' E 151°46'2 1.8
2015-Jul-14 07:32S 32°53' E 151°45'0 0.0
2015-Jul-14 06:32S 32°53' E 151°45'0 0.0
2015-Jul-14 05:32S 32°53' E 151°45'0 0.0
2015-Jul-14 04:32S 32°53' E 151°45'0 0.0
2015-Jul-14 03:28S 32°53' E 151°45'0 0.0
2015-Jul-14 02:31S 32°53' E 151°45'0 0.0
2015-Jul-14 01:31S 32°53' E 151°45'0 0.0
2015-Jul-14 00:31S 32°53' E 151°45'0 0.0
2015-Jul-13 23:31S 32°53' E 151°45'0 0.0
2015-Jul-13 22:31S 32°53' E 151°45'0 0.0
2015-Jul-13 21:31S 32°53' E 151°45'0 0.0
2015-Jul-13 20:31S 32°53' E 151°45'0 0.0
2015-Jul-13 19:28S 32°53' E 151°45'0 0.0
2015-Jul-13 18:25S 32°53' E 151°45'0 0.0
2015-Jul-13 17:28S 32°53' E 151°45'0 0.0
2015-Jul-13 16:31S 32°53' E 151°45'0 0.0
2015-Jul-13 15:31S 32°53' E 151°45'0 0.0
2015-Jul-13 14:28S 32°53' E 151°45'0 0.0
2015-Jul-13 13:31S 32°53' E 151°45'0 0.0
2015-Jul-13 12:31S 32°53' E 151°45'0 0.0
2015-Jul-13 11:31S 32°53' E 151°45'0 0.0
2015-Jul-13 10:31S 32°53' E 151°45'0 0.0
2015-Jul-13 09:31S 32°53' E 151°45'0 0.0
2015-Jul-13 08:31S 32°53' E 151°45'0 0.0
2015-Jul-13 07:31S 32°53' E 151°45'0 0.1
2015-Jul-13 06:31S 32°53' E 151°45'0 0.1
2015-Jul-13 05:31S 32°53' E 151°45'0 0.0
2015-Jul-13 04:31S 32°53' E 151°45'0 0.0
2015-Jul-13 03:31S 32°53' E 151°45'0 0.1
2015-Jul-13 02:31S 32°53' E 151°45'0 0.0
2015-Jul-13 01:31S 32°53' E 151°45'0 0.1
2015-Jul-13 00:32S 32°53' E 151°45'1 1.2
2015-Jul-12 23:33S 32°54' E 151°46'14 6.6
2015-Jul-12 21:27S 33°01' E 152°00'2 1.9
2015-Jul-12 20:31S 33°03' E 151°59'3 3.0
2015-Jul-12 19:33S 33°02' E 151°56'10 9.7
2015-Jul-12 18:33S 33°10' E 152°03'6 5.1
2015-Jul-12 17:22S 33°14' E 152°07'3 2.0
2015-Jul-12 16:04S 33°14' E 152°04'2 3.5
2015-Jul-12 15:32S 33°15' E 152°06'2 1.6
2015-Jul-12 14:17S 33°15' E 152°04'4 2.2
2015-Jul-12 12:26S 33°16' E 151°59'2 1.9
2015-Jul-12 11:23S 33°16' E 151°56'2 0.8
2015-Jul-12 09:18S 33°15' E 151°57'811.1
2015-Jul-12 08:33S 33°10' E 152°04'5 4.4
2015-Jul-12 07:30S 33°07' E 152°09'2 2.4
2015-Jul-12 06:33S 33°08' E 152°06'2 2.3
2015-Jul-12 05:30S 33°08' E 152°04'2 2.2
2015-Jul-12 04:33S 33°09' E 152°01'3 2.4
2015-Jul-12 03:30S 33°10' E 151°58'2 2.4
2015-Jul-12 02:33S 33°11' E 151°56'5 0.2
2015-Jul-10 20:33S 33°07' E 151°51'1111.1
2015-Jul-10 19:33S 32°60' E 152°01'8 8.2
2015-Jul-10 18:33S 32°56' E 152°10'9 8.6
2015-Jul-10 17:34S 32°53' E 152°19'9 9.0
2015-Jul-10 16:33S 32°47' E 152°28'9 9.5
2015-Jul-10 15:33S 32°40' E 152°35'9 9.5
2015-Jul-10 14:33S 32°33' E 152°42'  
Track history (hours):
 
Tides and Currents Weather Stations Pressure Air Temp Water Temp Dewpoint Dewpoint Depression Visibility Wind Speed Wind Dir Waves Ship Positions

Orsola Bottiglieri

Last reported at 2015-Jul-16 04:08 UTC. Time now 2015-Aug-01 09:51 UTC.
Position S 27°01' E 154°06'.
Warning: this ship's position is 16 days out of date.

Length 292 m; draft 15.5 m.

Type: Cargo ship. MMSI: 247304400.

Date/timePositionNaut miles runAvg speedWind from/ knotsBaromVisibWave heightAir tempDewpointWater temp
2015-Jul-16 04:08S 27°01' E 154°06'711.9
2015-Jul-16 03:33S 27°08' E 154°06'19 9.5
2015-Jul-16 01:33S 27°27' E 154°07'9 9.4
2015-Jul-16 00:33S 27°37' E 154°06'9 9.3
2015-Jul-15 23:33S 27°46' E 154°06'9 8.6
2015-Jul-15 22:30S 27°55' E 154°06'285 8.8
2015-Jul-14 14:06S 32°31' E 152°44'611.9
2015-Jul-14 13:33S 32°36' E 152°39'1212.2
2015-Jul-14 12:33S 32°45' E 152°30'1211.8
2015-Jul-14 11:33S 32°52' E 152°19'1211.8
2015-Jul-14 10:33S 32°57' E 152°06'1111.1
2015-Jul-14 09:33S 32°57' E 151°53'6 5.8
2015-Jul-14 08:33S 32°54' E 151°46'2 1.8
2015-Jul-14 07:32S 32°53' E 151°45'0 0.0
2015-Jul-14 06:32S 32°53' E 151°45'0 0.0
2015-Jul-14 05:32S 32°53' E 151°45'0 0.0
2015-Jul-14 04:32S 32°53' E 151°45'0 0.0
2015-Jul-14 03:28S 32°53' E 151°45'0 0.0
2015-Jul-14 02:31S 32°53' E 151°45'0 0.0
2015-Jul-14 01:31S 32°53' E 151°45'0 0.0
2015-Jul-14 00:31S 32°53' E 151°45'0 0.0
2015-Jul-13 23:31S 32°53' E 151°45'0 0.0
2015-Jul-13 22:31S 32°53' E 151°45'0 0.0
2015-Jul-13 21:31S 32°53' E 151°45'0 0.0
2015-Jul-13 20:31S 32°53' E 151°45'0 0.0
2015-Jul-13 19:28S 32°53' E 151°45'0 0.0
2015-Jul-13 18:25S 32°53' E 151°45'0 0.0
2015-Jul-13 17:28S 32°53' E 151°45'0 0.0
2015-Jul-13 16:31S 32°53' E 151°45'0 0.0
2015-Jul-13 15:31S 32°53' E 151°45'0 0.0
2015-Jul-13 14:28S 32°53' E 151°45'0 0.0
2015-Jul-13 13:31S 32°53' E 151°45'0 0.0
2015-Jul-13 12:31S 32°53' E 151°45'0 0.0
2015-Jul-13 11:31S 32°53' E 151°45'0 0.0
2015-Jul-13 10:31S 32°53' E 151°45'0 0.0
2015-Jul-13 09:31S 32°53' E 151°45'0 0.0
2015-Jul-13 08:31S 32°53' E 151°45'0 0.0
2015-Jul-13 07:31S 32°53' E 151°45'0 0.1
2015-Jul-13 06:31S 32°53' E 151°45'0 0.1
2015-Jul-13 05:31S 32°53' E 151°45'0 0.0
2015-Jul-13 04:31S 32°53' E 151°45'0 0.0
2015-Jul-13 03:31S 32°53' E 151°45'0 0.1
2015-Jul-13 02:31S 32°53' E 151°45'0 0.0
2015-Jul-13 01:31S 32°53' E 151°45'0 0.1
2015-Jul-13 00:32S 32°53' E 151°45'1 1.2
2015-Jul-12 23:33S 32°54' E 151°46'14 6.6
2015-Jul-12 21:27S 33°01' E 152°00'2 1.9
2015-Jul-12 20:31S 33°03' E 151°59'3 3.0
2015-Jul-12 19:33S 33°02' E 151°56'10 9.7
2015-Jul-12 18:33S 33°10' E 152°03'6 5.1
2015-Jul-12 17:22S 33°14' E 152°07'3 2.0
2015-Jul-12 16:04S 33°14' E 152°04'2 3.5
2015-Jul-12 15:32S 33°15' E 152°06'2 1.6
2015-Jul-12 14:17S 33°15' E 152°04'4 2.2
2015-Jul-12 12:26S 33°16' E 151°59'2 1.9
2015-Jul-12 11:23S 33°16' E 151°56'2 0.8
2015-Jul-12 09:18S 33°15' E 151°57'811.1
2015-Jul-12 08:33S 33°10' E 152°04'5 4.4
2015-Jul-12 07:30S 33°07' E 152°09'2 2.4
2015-Jul-12 06:33S 33°08' E 152°06'2 2.3
2015-Jul-12 05:30S 33°08' E 152°04'2 2.2
2015-Jul-12 04:33S 33°09' E 152°01'3 2.4
2015-Jul-12 03:30S 33°10' E 151°58'2 2.4
2015-Jul-12 02:33S 33°11' E 151°56'5 0.2
2015-Jul-10 20:33S 33°07' E 151°51'1111.1
2015-Jul-10 19:33S 32°60' E 152°01'8 8.2
2015-Jul-10 18:33S 32°56' E 152°10'9 8.6
2015-Jul-10 17:34S 32°53' E 152°19'9 9.0
2015-Jul-10 16:33S 32°47' E 152°28'9 9.5
2015-Jul-10 15:33S 32°40' E 152°35'9 9.5
2015-Jul-10 14:33S 32°33' E 152°42'  

Dump ship's entire track history